createdAt,value
2018-05-12T00:02:19.959Z,4.97
2018-05-12T00:04:47.495Z,4.60
2018-05-12T00:07:15.036Z,4.40
2018-05-12T00:09:42.569Z,4.80
2018-05-12T00:12:10.244Z,4.80
2018-05-12T00:14:37.765Z,4.50
2018-05-12T00:17:06.083Z,4.67
2018-05-12T00:19:33.601Z,4.37
2018-05-12T00:22:01.116Z,5.03
2018-05-12T00:24:28.662Z,4.97
2018-05-12T00:26:56.187Z,5.10
2018-05-12T00:29:23.699Z,5.37
2018-05-12T00:31:51.217Z,4.73
2018-05-12T00:34:18.753Z,5.40
2018-05-12T00:36:46.271Z,5.27
2018-05-12T00:39:13.792Z,5.47
2018-05-12T00:41:41.413Z,4.87
2018-05-12T00:44:08.917Z,5.43
2018-05-12T00:46:36.450Z,5.20
2018-05-12T00:49:03.979Z,5.70
2018-05-12T00:51:31.535Z,5.40
2018-05-12T00:53:59.066Z,5.17
2018-05-12T00:56:26.681Z,5.27
2018-05-12T00:58:54.241Z,5.47
2018-05-12T01:01:22.531Z,5.40
2018-05-12T01:03:50.039Z,5.27
2018-05-12T01:06:17.547Z,5.70
2018-05-12T01:08:45.155Z,5.70
2018-05-12T01:11:13.381Z,5.70
2018-05-12T01:13:40.928Z,5.40
2018-05-12T01:16:08.473Z,6.00
2018-05-12T01:18:36.742Z,5.40
2018-05-12T01:21:04.283Z,6.17
2018-05-12T01:23:31.811Z,6.13
2018-05-12T01:25:59.346Z,5.77
2018-05-12T01:28:26.909Z,5.70
2018-05-12T01:30:54.429Z,5.97
2018-05-12T01:33:22.035Z,5.77
2018-05-12T01:35:49.545Z,6.47
2018-05-12T01:38:17.063Z,6.13
2018-05-12T01:40:44.580Z,7.60
2018-05-12T01:43:12.104Z,5.80
2018-05-12T01:45:39.841Z,7.40
2018-05-12T01:48:07.366Z,6.60
2018-05-12T01:50:35.650Z,7.10
2018-05-12T01:53:04.018Z,6.63
2018-05-12T01:55:31.534Z,7.00
2018-05-12T01:57:59.058Z,8.00
2018-05-12T02:00:26.582Z,6.73
2018-05-12T02:02:54.085Z,7.80
2018-05-12T02:05:21.628Z,8.67
2018-05-12T02:07:49.191Z,8.60
2018-05-12T02:10:16.860Z,8.03
2018-05-12T02:12:44.418Z,8.33
2018-05-12T02:15:11.926Z,7.73
2018-05-12T02:17:39.472Z,8.37
2018-05-12T02:20:06.992Z,8.37
2018-05-12T02:22:34.513Z,8.33
2018-05-12T02:25:02.045Z,8.47
2018-05-12T02:27:29.565Z,8.80
2018-05-12T02:29:57.085Z,8.17
2018-05-12T02:32:24.661Z,8.10
2018-05-12T02:34:52.947Z,8.43
2018-05-12T02:37:20.467Z,8.77
2018-05-12T02:39:47.972Z,8.80
2018-05-12T02:42:15.551Z,8.67
2018-05-12T02:44:43.078Z,8.60
2018-05-12T02:47:10.619Z,8.90
2018-05-12T02:49:39.054Z,8.90
2018-05-12T02:52:06.505Z,9.23
2018-05-12T02:54:34.025Z,10.23
2018-05-12T02:57:02.495Z,9.97
2018-05-12T02:59:30.787Z,9.57
2018-05-12T03:01:59.059Z,9.80
2018-05-12T03:04:27.342Z,9.07
2018-05-12T03:06:54.863Z,9.33
2018-05-12T03:09:22.439Z,9.03
2018-05-12T03:11:50.727Z,9.47
2018-05-12T03:14:19.021Z,9.77
2018-05-12T03:16:46.539Z,9.40
2018-05-12T03:19:14.064Z,10.00
2018-05-12T03:21:41.773Z,9.73
2018-05-12T03:24:10.063Z,9.50
2018-05-12T03:26:38.356Z,9.87
2018-05-12T03:29:05.918Z,9.40
2018-05-12T03:31:33.455Z,8.83
2018-05-12T03:34:00.999Z,10.13
2018-05-12T03:36:28.551Z,10.00
2018-05-12T03:38:56.858Z,10.33
2018-05-12T03:41:24.454Z,9.90
2018-05-12T03:43:51.973Z,9.70
2018-05-12T03:46:19.506Z,10.07
2018-05-12T03:48:47.043Z,10.67
2018-05-12T03:51:14.565Z,9.87
2018-05-12T03:53:42.088Z,9.83
2018-05-12T03:56:09.598Z,9.40
2018-05-12T03:58:37.135Z,9.87
2018-05-12T04:01:04.684Z,9.67
2018-05-12T04:03:32.202Z,10.43
2018-05-12T04:06:11.606Z,10.27
2018-05-12T04:08:50.862Z,10.33
2018-05-12T04:11:30.319Z,9.77
2018-05-12T04:13:57.898Z,10.10
2018-05-12T04:16:26.182Z,9.70
2018-05-12T04:18:53.739Z,9.97
2018-05-12T04:21:21.270Z,9.73
2018-05-12T04:23:48.795Z,10.27
2018-05-12T04:26:16.402Z,9.30
2018-05-12T04:28:44.826Z,9.93
2018-05-12T04:31:12.361Z,10.40
2018-05-12T04:33:39.884Z,10.40
2018-05-12T04:36:07.417Z,9.63
2018-05-12T04:38:34.964Z,10.13
2018-05-12T04:41:02.488Z,9.50
2018-05-12T04:43:30.013Z,9.73
2018-05-12T04:45:57.521Z,9.80
2018-05-12T04:48:25.058Z,10.13
2018-05-12T04:50:52.556Z,9.77
2018-05-12T04:53:20.062Z,9.63
2018-05-12T04:55:48.354Z,10.03
2018-05-12T04:58:15.932Z,10.40
2018-05-12T05:00:43.452Z,9.33
2018-05-12T05:03:11.749Z,9.47
2018-05-12T05:05:39.399Z,10.00
2018-05-12T05:08:07.848Z,9.90
2018-05-12T05:10:35.343Z,8.83
2018-05-12T05:13:03.621Z,9.67
2018-05-12T05:15:31.160Z,9.60
2018-05-12T05:17:58.704Z,10.17
2018-05-12T05:20:26.996Z,9.57
2018-05-12T05:22:54.502Z,9.20
2018-05-12T05:25:22.037Z,9.73
2018-05-12T05:27:49.563Z,10.20
2018-05-12T05:30:17.101Z,10.53
2018-05-12T05:32:44.829Z,10.07
2018-05-12T05:35:12.357Z,10.23
2018-05-12T05:37:39.902Z,9.93
2018-05-12T05:40:07.455Z,10.43
2018-05-12T05:42:35.001Z,10.53
2018-05-12T05:45:02.498Z,9.73
2018-05-12T05:47:30.017Z,10.07
2018-05-12T05:49:57.599Z,10.17
2018-05-12T05:52:25.141Z,9.60
2018-05-12T05:54:52.663Z,9.60
2018-05-12T05:57:20.177Z,9.50
2018-05-12T05:59:47.688Z,10.63
2018-05-12T06:02:15.212Z,10.00
2018-05-12T06:04:42.772Z,10.00
2018-05-12T06:07:10.338Z,10.30
2018-05-12T06:09:38.639Z,9.70
2018-05-12T06:12:06.171Z,10.47
2018-05-12T06:14:33.693Z,10.37
2018-05-12T06:17:01.243Z,10.03
2018-05-12T06:19:28.758Z,10.70
2018-05-12T06:21:57.066Z,10.10
2018-05-12T06:24:24.599Z,10.40
2018-05-12T06:26:52.128Z,10.47
2018-05-12T06:29:19.647Z,10.53
2018-05-12T06:31:47.167Z,11.07
2018-05-12T06:34:14.693Z,10.60
2018-05-12T06:36:42.227Z,10.67
2018-05-12T06:39:09.761Z,10.30
2018-05-12T06:41:37.546Z,11.70
2018-05-12T06:44:05.078Z,11.23
2018-05-12T06:46:32.638Z,11.10
2018-05-12T06:49:00.158Z,10.83
2018-05-12T06:51:28.441Z,10.87
2018-05-12T06:53:56.005Z,10.93
2018-05-12T06:56:23.552Z,12.33
2018-05-12T06:58:51.833Z,11.00
2018-05-12T07:01:19.522Z,11.17
2018-05-12T07:03:47.005Z,11.27
2018-05-12T07:06:14.533Z,11.30
2018-05-12T07:08:42.095Z,11.80
2018-05-12T07:11:09.653Z,11.27
2018-05-12T07:13:37.177Z,12.00
2018-05-12T07:16:05.495Z,11.80
2018-05-12T07:18:33.243Z,11.00
2018-05-12T07:21:00.787Z,11.53
2018-05-12T07:23:28.432Z,10.77
2018-05-12T07:25:56.809Z,11.47
2018-05-12T07:28:24.381Z,11.53
2018-05-12T07:30:52.663Z,11.17
2018-05-12T07:33:20.185Z,11.90
2018-05-12T07:35:47.719Z,10.97
2018-05-12T07:38:15.402Z,11.60
2018-05-12T07:40:43.059Z,11.37
2018-05-12T07:43:10.583Z,11.47
2018-05-12T07:45:38.129Z,12.10
2018-05-12T07:48:05.686Z,11.63
2018-05-12T07:50:33.225Z,11.63
2018-05-12T07:53:00.771Z,12.20
2018-05-12T07:55:29.078Z,11.97
2018-05-12T07:57:56.609Z,11.63
2018-05-12T08:00:24.913Z,11.53
2018-05-12T08:02:52.445Z,11.77
2018-05-12T08:05:20.094Z,12.20
2018-05-12T08:07:47.778Z,12.33
2018-05-12T08:10:15.326Z,12.80
2018-05-12T08:12:43.618Z,12.30
2018-05-12T08:15:11.149Z,12.97
2018-05-12T08:17:38.691Z,12.87
2018-05-12T08:20:06.228Z,12.37
2018-05-12T08:22:33.732Z,13.13
2018-05-12T08:25:01.271Z,11.90
2018-05-12T08:27:29.814Z,13.07
2018-05-12T08:29:57.439Z,13.17
2018-05-12T08:32:25.866Z,12.97
2018-05-12T08:34:53.398Z,12.77
2018-05-12T08:37:20.942Z,13.33
2018-05-12T08:39:48.476Z,13.50
2018-05-12T08:42:16.096Z,13.80
2018-05-12T08:44:43.651Z,13.50
2018-05-12T08:47:11.185Z,13.00
2018-05-12T08:49:38.741Z,13.27
2018-05-12T08:52:07.018Z,13.90
2018-05-12T08:54:35.311Z,13.50
2018-05-12T08:57:02.884Z,13.33
2018-05-12T08:59:30.412Z,13.13
2018-05-12T09:01:58.723Z,13.73
2018-05-12T09:04:26.248Z,14.23
2018-05-12T09:06:53.760Z,12.90
2018-05-12T09:09:21.293Z,12.60
2018-05-12T09:11:48.931Z,12.17
2018-05-12T09:14:16.459Z,13.47
2018-05-12T09:16:44.157Z,12.80
2018-05-12T09:19:11.773Z,12.50
2018-05-12T09:21:39.246Z,14.80
2018-05-12T09:24:06.798Z,13.70
2018-05-12T09:26:34.477Z,12.70
2018-05-12T09:29:02.780Z,12.93
2018-05-12T09:31:30.308Z,12.57
2018-05-12T09:33:57.837Z,12.67
2018-05-12T09:36:25.414Z,12.77
2018-05-12T09:38:52.970Z,13.00
2018-05-12T09:41:20.538Z,12.60
2018-05-12T09:43:48.095Z,11.47
2018-05-12T09:46:15.688Z,10.57
2018-05-12T09:48:43.214Z,8.60
2018-05-12T09:51:11.520Z,7.63
2018-05-12T09:53:39.067Z,7.73
2018-05-12T09:56:06.660Z,8.33
2018-05-12T09:58:34.211Z,7.73
2018-05-12T10:01:01.743Z,7.90
2018-05-12T10:03:29.427Z,8.57
2018-05-12T10:05:56.920Z,7.97
2018-05-12T10:08:24.475Z,8.53
2018-05-12T10:10:52.002Z,8.57
2018-05-12T10:13:19.547Z,8.40
2018-05-12T10:15:47.097Z,8.40
2018-05-12T10:18:15.408Z,7.53
2018-05-12T10:20:42.955Z,6.83
2018-05-12T10:23:10.476Z,6.57
2018-05-12T10:25:38.758Z,6.03
2018-05-12T10:28:07.051Z,5.60
2018-05-12T10:30:34.604Z,5.63
2018-05-12T10:33:02.130Z,4.87
2018-05-12T10:35:30.429Z,5.40
2018-05-12T10:37:58.849Z,4.77
2018-05-12T10:40:26.397Z,4.80
2018-05-12T10:42:54.025Z,4.77
2018-05-12T10:45:21.580Z,4.50
2018-05-12T10:47:49.893Z,4.40
2018-05-12T10:50:17.399Z,4.67
2018-05-12T10:52:44.914Z,4.77
2018-05-12T10:55:12.443Z,5.00
2018-05-12T10:57:40.719Z,4.47
2018-05-12T11:00:09.065Z,4.30
2018-05-12T11:02:36.645Z,4.30
2018-05-12T11:05:04.931Z,4.07
2018-05-12T11:07:33.221Z,4.43
2018-05-12T11:10:00.745Z,3.97
2018-05-12T11:12:29.797Z,3.30
2018-05-12T11:14:57.333Z,3.47
2018-05-12T11:17:24.868Z,3.40
2018-05-12T11:19:52.382Z,3.00
2018-05-12T11:22:19.998Z,3.03
2018-05-12T11:24:47.634Z,3.67
2018-05-12T11:27:15.935Z,3.13
2018-05-12T11:29:43.469Z,3.07
2018-05-12T11:32:11.043Z,2.63
2018-05-12T11:34:38.557Z,3.00
2018-05-12T11:37:06.098Z,3.00
2018-05-12T11:39:33.742Z,2.73
2018-05-12T11:42:01.278Z,2.97
2018-05-12T11:44:29.668Z,2.80
2018-05-12T11:46:57.137Z,3.20
2018-05-12T11:49:24.661Z,3.37
2018-05-12T11:51:52.951Z,2.60
2018-05-12T11:54:21.247Z,2.70
2018-05-12T11:56:48.745Z,2.53
2018-05-12T11:59:16.357Z,2.73
2018-05-12T12:01:43.895Z,2.50
2018-05-12T12:04:11.451Z,2.23
2018-05-12T12:06:39.745Z,2.10
2018-05-12T12:09:07.261Z,2.83
2018-05-12T12:11:34.771Z,2.40
2018-05-12T12:14:02.311Z,2.70
2018-05-12T12:16:30.678Z,2.43
2018-05-12T12:18:58.145Z,2.10
2018-05-12T12:21:25.695Z,2.80
2018-05-12T12:23:53.990Z,2.83
2018-05-12T12:26:21.745Z,3.00
2018-05-12T12:28:49.278Z,3.40
2018-05-12T12:31:16.803Z,3.23
2018-05-12T12:33:44.416Z,3.80
2018-05-12T12:36:12.739Z,3.20
2018-05-12T12:38:40.364Z,2.97
2018-05-12T12:41:08.681Z,3.67
2018-05-12T12:43:36.196Z,3.30
2018-05-12T12:46:03.723Z,3.77
2018-05-12T12:48:31.265Z,3.50
2018-05-12T12:50:58.801Z,3.27
2018-05-12T12:53:26.325Z,2.93
2018-05-12T12:55:54.612Z,3.80
2018-05-12T12:58:23.550Z,3.17
2018-05-12T13:00:51.075Z,3.57
2018-05-12T13:03:18.592Z,3.50
2018-05-12T13:05:47.023Z,4.13
2018-05-12T13:08:14.764Z,4.00
2018-05-12T13:10:42.268Z,3.80
2018-05-12T13:13:09.795Z,3.33
2018-05-12T13:15:37.314Z,3.93
2018-05-12T13:18:05.619Z,3.87
2018-05-12T13:20:33.960Z,3.30
2018-05-12T13:23:01.507Z,3.27
2018-05-12T13:25:29.023Z,3.40
2018-05-12T13:27:56.679Z,3.47
2018-05-12T13:30:24.155Z,3.93
2018-05-12T13:32:51.655Z,3.40
2018-05-12T13:35:19.937Z,3.60
2018-05-12T13:37:47.458Z,3.63
2018-05-12T13:40:14.994Z,3.37
2018-05-12T13:42:42.496Z,3.63
2018-05-12T13:45:10.096Z,3.73
2018-05-12T13:47:38.370Z,3.73
2018-05-12T13:50:06.675Z,3.30
2018-05-12T13:52:34.195Z,3.27
2018-05-12T13:55:01.723Z,3.27
2018-05-12T13:57:29.246Z,3.07
2018-05-12T13:59:56.774Z,3.53
2018-05-12T14:02:24.304Z,3.70
2018-05-12T14:04:51.854Z,4.40
2018-05-12T14:07:19.430Z,4.00
2018-05-12T14:09:46.952Z,3.83
2018-05-12T14:12:14.481Z,4.00
2018-05-12T14:14:42.041Z,3.23
2018-05-12T14:17:09.580Z,3.47
2018-05-12T14:19:37.099Z,3.40
2018-05-12T14:22:04.733Z,3.67
2018-05-12T14:24:32.260Z,3.43
2018-05-12T14:27:00.649Z,3.40
2018-05-12T14:29:28.170Z,3.10
2018-05-12T14:31:56.465Z,3.30
2018-05-12T14:34:24.757Z,3.87
2018-05-12T14:36:52.321Z,3.47
2018-05-12T14:39:19.854Z,3.27
2018-05-12T14:41:47.515Z,3.00
2018-05-12T14:44:15.051Z,3.17
2018-05-12T14:46:42.597Z,3.17
2018-05-12T14:49:10.102Z,3.30
2018-05-12T14:51:38.401Z,3.50
2018-05-12T14:54:05.965Z,3.50
2018-05-12T14:56:33.473Z,3.10
2018-05-12T14:59:00.999Z,3.20
2018-05-12T15:01:28.531Z,3.10
2018-05-12T15:03:56.065Z,3.77
2018-05-12T15:06:24.373Z,3.40
2018-05-12T15:08:51.939Z,3.50
2018-05-12T15:11:19.467Z,3.13
2018-05-12T15:13:47.765Z,3.40
2018-05-12T15:16:15.318Z,3.07
2018-05-12T15:18:42.845Z,2.83
2018-05-12T15:21:10.369Z,3.63
2018-05-12T15:23:37.914Z,3.03
2018-05-12T15:26:05.460Z,3.23
2018-05-12T15:28:32.991Z,3.37
2018-05-12T15:31:00.491Z,3.20
2018-05-12T15:33:28.025Z,3.83
2018-05-12T15:35:55.571Z,3.87
2018-05-12T15:38:23.845Z,3.40
2018-05-12T15:40:51.373Z,3.23
2018-05-12T15:43:19.671Z,3.20
2018-05-12T15:45:47.974Z,3.17
2018-05-12T15:48:15.544Z,3.37
2018-05-12T15:50:43.064Z,3.03
2018-05-12T15:53:11.357Z,3.30
2018-05-12T15:55:38.895Z,3.20
2018-05-12T15:58:06.413Z,3.23
2018-05-12T16:00:33.941Z,3.30
2018-05-12T16:03:01.525Z,3.10
2018-05-12T16:05:29.001Z,4.20
2018-05-12T16:07:56.532Z,4.07
2018-05-12T16:10:24.827Z,3.70
2018-05-12T16:12:52.440Z,3.87
2018-05-12T16:15:20.749Z,3.90
2018-05-12T16:17:48.270Z,3.87
2018-05-12T16:20:15.889Z,3.90
2018-05-12T16:22:43.400Z,4.00
2018-05-12T16:25:10.939Z,4.27
2018-05-12T16:27:39.262Z,4.30
2018-05-12T16:30:06.813Z,4.30
2018-05-12T16:32:34.364Z,5.40
2018-05-12T16:35:01.885Z,4.13
2018-05-12T16:37:29.411Z,4.40
2018-05-12T16:39:56.992Z,4.33
2018-05-12T16:42:24.522Z,4.30
2018-05-12T16:44:52.057Z,4.40
2018-05-12T16:47:19.895Z,4.70
2018-05-12T16:49:48.171Z,4.23
2018-05-12T16:52:16.444Z,4.50
2018-05-12T16:54:44.872Z,5.60
2018-05-12T16:57:12.401Z,6.00
2018-05-12T16:59:39.926Z,4.30
2018-05-12T17:02:09.046Z,4.60
2018-05-12T17:04:36.579Z,5.40
2018-05-12T17:07:04.879Z,5.03
2018-05-12T17:09:32.417Z,4.37
2018-05-12T17:11:59.953Z,4.33
2018-05-12T17:14:27.476Z,4.53
2018-05-12T17:16:55.042Z,4.33
2018-05-12T17:19:22.578Z,5.13
2018-05-12T17:21:50.130Z,4.60
2018-05-12T17:24:17.800Z,4.70
2018-05-12T17:26:45.346Z,4.50
2018-05-12T17:29:13.631Z,4.40
2018-05-12T17:31:41.985Z,4.53
2018-05-12T17:34:09.528Z,4.27
2018-05-12T17:36:37.060Z,4.60
2018-05-12T17:39:04.622Z,4.70
2018-05-12T17:41:32.143Z,4.30
2018-05-12T17:44:00.509Z,4.93
2018-05-12T17:46:27.982Z,5.03
2018-05-12T17:48:55.531Z,4.60
2018-05-12T17:51:23.937Z,5.10
2018-05-12T17:53:51.465Z,4.73
2018-05-12T17:56:19.765Z,4.50
2018-05-12T17:58:47.381Z,4.60
2018-05-12T18:01:14.903Z,5.10
2018-05-12T18:03:42.418Z,4.20
2018-05-12T18:06:09.957Z,5.10
2018-05-12T18:08:38.245Z,5.13
2018-05-12T18:11:06.536Z,4.70
2018-05-12T18:13:34.072Z,5.93
2018-05-12T18:16:01.587Z,5.20
2018-05-12T18:18:29.107Z,5.00
2018-05-12T18:20:57.392Z,4.30
2018-05-12T18:23:24.911Z,4.80
2018-05-12T18:25:52.426Z,5.00
2018-05-12T18:28:19.949Z,4.93
2018-05-12T18:30:48.249Z,4.33
2018-05-12T18:33:15.820Z,4.67
2018-05-12T18:35:43.497Z,4.63
2018-05-12T18:38:11.054Z,4.63
2018-05-12T18:40:38.623Z,4.60
2018-05-12T18:43:06.144Z,4.43
2018-05-12T18:45:33.680Z,4.47
2018-05-12T18:48:01.262Z,4.27
2018-05-12T18:50:28.899Z,4.40
2018-05-12T18:52:57.183Z,3.80
2018-05-12T18:55:25.486Z,4.17
2018-05-12T18:57:53.007Z,4.57
2018-05-12T19:00:20.547Z,4.13
2018-05-12T19:02:48.082Z,4.47
2018-05-12T19:05:15.650Z,4.30
2018-05-12T19:07:43.181Z,3.90
2018-05-12T19:10:10.698Z,4.00
2018-05-12T19:12:38.270Z,4.03
2018-05-12T19:15:06.544Z,3.97
2018-05-12T19:17:35.062Z,4.13
2018-05-12T19:20:02.797Z,4.20
2018-05-12T19:22:30.371Z,4.47
2018-05-12T19:24:57.920Z,4.17
2018-05-12T19:27:25.457Z,4.27
2018-05-12T19:29:53.787Z,4.33
2018-05-12T19:32:21.447Z,3.90
2018-05-12T19:34:48.969Z,3.93
2018-05-12T19:37:16.552Z,4.20
2018-05-12T19:39:44.060Z,4.60
2018-05-12T19:42:11.713Z,4.50
2018-05-12T19:44:39.936Z,4.37
2018-05-12T19:47:07.472Z,4.37
2018-05-12T19:49:35.005Z,4.77
2018-05-12T19:52:02.534Z,4.60
2018-05-12T19:54:30.084Z,4.53
2018-05-12T19:56:57.818Z,4.70
2018-05-12T19:59:25.279Z,4.60
2018-05-12T20:01:52.806Z,4.63
2018-05-12T20:04:20.355Z,4.50
2018-05-12T20:06:47.987Z,4.30
2018-05-12T20:09:15.509Z,4.70
2018-05-12T20:11:43.786Z,4.60
2018-05-12T20:14:12.106Z,4.47
2018-05-12T20:16:40.455Z,4.60
2018-05-12T20:19:08.004Z,4.33
2018-05-12T20:21:35.539Z,4.93
2018-05-12T20:24:03.240Z,4.70
2018-05-12T20:26:30.763Z,4.60
2018-05-12T20:28:58.452Z,4.40
2018-05-12T20:31:26.020Z,4.33
2018-05-12T20:33:53.563Z,4.70
2018-05-12T20:36:21.118Z,4.37
2018-05-12T20:38:48.885Z,4.20
2018-05-12T20:41:17.183Z,4.63
2018-05-12T20:43:44.713Z,3.90
2018-05-12T20:46:12.417Z,4.37
2018-05-12T20:48:39.974Z,4.07
2018-05-12T20:51:07.492Z,4.27
2018-05-12T20:53:35.023Z,4.40
2018-05-12T20:56:02.544Z,4.03
2018-05-12T20:58:30.068Z,4.70
2018-05-12T21:00:57.597Z,4.53
2018-05-12T21:03:25.099Z,4.30
2018-05-12T21:05:52.622Z,4.70
2018-05-12T21:08:20.154Z,4.90
2018-05-12T21:10:47.688Z,4.30
2018-05-12T21:13:15.318Z,4.07
2018-05-12T21:15:43.868Z,4.50
2018-05-12T21:18:11.430Z,4.03
2018-05-12T21:20:38.957Z,4.13
2018-05-12T21:23:06.515Z,4.33
2018-05-12T21:25:34.040Z,4.33
2018-05-12T21:28:02.322Z,3.97
2018-05-12T21:30:29.892Z,4.10
2018-05-12T21:32:57.406Z,4.00
2018-05-12T21:35:24.952Z,3.90
2018-05-12T21:37:52.464Z,3.87
2018-05-12T21:40:20.003Z,3.73
2018-05-12T21:42:47.614Z,3.93
2018-05-12T21:45:15.158Z,3.67
2018-05-12T21:47:42.719Z,3.97
2018-05-12T21:50:10.253Z,4.37
2018-05-12T21:52:37.772Z,4.60
2018-05-12T21:55:05.370Z,4.10
2018-05-12T21:57:32.966Z,3.93
2018-05-12T22:00:00.493Z,4.40
2018-05-12T22:02:28.091Z,3.77
2018-05-12T22:04:55.638Z,4.63
2018-05-12T22:07:23.174Z,4.20
2018-05-12T22:09:50.704Z,4.13
2018-05-12T22:12:18.987Z,4.70
2018-05-12T22:14:47.469Z,4.20
2018-05-12T22:17:15.876Z,4.50
2018-05-12T22:19:43.398Z,4.30
2018-05-12T22:22:11.704Z,4.97
2018-05-12T22:24:39.307Z,4.70
2018-05-12T22:27:06.856Z,4.53
2018-05-12T22:29:34.390Z,4.80
2018-05-12T22:32:01.925Z,4.70
2018-05-12T22:34:30.213Z,4.80
2018-05-12T22:36:57.748Z,4.47
2018-05-12T22:39:26.182Z,5.00
2018-05-12T22:41:53.718Z,4.93
2018-05-12T22:44:21.242Z,4.20
2018-05-12T22:46:49.530Z,4.60
2018-05-12T22:49:17.938Z,4.97
2018-05-12T22:51:45.503Z,5.33
2018-05-12T22:54:13.043Z,5.30
2018-05-12T22:56:40.578Z,5.07
2018-05-12T22:59:08.902Z,4.97
2018-05-12T23:01:36.426Z,5.33
2018-05-12T23:04:04.016Z,5.20
2018-05-12T23:06:31.528Z,5.03
2018-05-12T23:08:59.057Z,5.40
2018-05-12T23:11:26.814Z,5.63
2018-05-12T23:13:54.386Z,5.90
2018-05-12T23:16:21.935Z,5.87
2018-05-12T23:18:49.471Z,5.70
2018-05-12T23:21:16.996Z,6.20
2018-05-12T23:23:45.471Z,6.13
2018-05-12T23:26:13.760Z,6.40
2018-05-12T23:28:41.301Z,6.33
2018-05-12T23:31:08.831Z,6.50
2018-05-12T23:33:36.364Z,6.43
2018-05-12T23:36:03.910Z,6.90
2018-05-12T23:38:31.414Z,7.10
2018-05-12T23:40:58.943Z,7.30
2018-05-12T23:43:26.471Z,6.87
2018-05-12T23:45:53.995Z,7.20
2018-05-12T23:48:22.297Z,7.50
2018-05-12T23:50:49.811Z,7.70
2018-05-12T23:53:17.403Z,7.67
2018-05-12T23:55:45.812Z,7.27
2018-05-12T23:58:13.323Z,8.33
